Time;durP1;ratioP1;P1;durP2;ratioP2;P2;SDS_P1;SDS_P2;PMS_P1;PMS_P2;Temp;Humidity;BMP_temperature;BMP_pressure;BME280_temperature;BME280_humidity;BME280_pressure;Samples;Min_cycle;Max_cycle;Signal;HPM_P1;HPM_P2
2020/12/01 00:02:23;;;;;;;;;;;;;;;;;;5072755;28;19960;-78
2020/12/01 00:04:50;;;;;;;;;;;;;;;;;;5072732;28;20359;-78
2020/12/01 00:07:16;;;;;;;;;;;;;;;;;;5091129;28;19935;-78
2020/12/01 00:09:43;;;;;;;;;;;;;;;;;;5073646;28;19956;-78
2020/12/01 00:12:09;;;;;;;;;;;;;;;;;;5073512;28;20145;-78
2020/12/01 00:14:39;;;;;;;;;;;;;;;;;;5073485;28;20030;-78
2020/12/01 00:17:06;;;;;;;;;;;;;;;;;;5073365;28;19970;-78
2020/12/01 00:19:32;;;;;;;;;;;;;;;;;;5090867;28;19928;-78
2020/12/01 00:21:59;;;;;;;;;;;;;;;;;;5072867;28;20349;-78
2020/12/01 00:24:25;;;;;;;;;;;;;;;;;;5071429;28;20026;-79
2020/12/01 00:26:52;;;;;;;;;;;;;;;;;;5072529;28;20411;-79
2020/12/01 00:29:18;;;;;;;;;;;;;;;;;;5088579;28;20022;-79
2020/12/01 00:31:45;;;;;;;;;;;;;;;;;;5071223;28;19924;-79
2020/12/01 00:34:11;;;;;;;;;;;;;;;;;;5073502;28;20031;-79
2020/12/01 00:36:40;;;;;;;;;;;;;;;;;;5073526;28;20035;-79
2020/12/01 00:39:07;;;;;;;;;;;;;;;;;;5073376;28;20024;-79
2020/12/01 00:41:33;;;;;;;;;;;;;;;;;;5090672;28;19924;-79
2020/12/01 00:44:00;;;;;;;;;;;;;;;;;;5073750;28;19924;-79
2020/12/01 00:46:26;;;;;;;;;;;;;;;;;;5073391;28;20402;-79
2020/12/01 00:48:53;;;;;;;;;;;;;;;;;;5091127;28;20014;-79
2020/12/01 00:51:20;;;;;;;;;;;;;;;;;;5073022;28;19971;-78
2020/12/01 00:53:49;;;;;;;;;;;;;;;;;;5073218;28;19994;-79
2020/12/01 00:56:16;;;;;;;;;;;;;;;;;;5072686;28;19963;-78
2020/12/01 00:58:42;;;;;;;;;;;;;;;;;;5073264;28;19931;-79
2020/12/01 01:01:09;;;;;;;;;;;;;;;;;;5073251;28;20430;-79
2020/12/01 01:03:38;;;;;;;;;;;;;;;;;;5077388;28;20383;-79
2020/12/01 01:06:05;;;;;;;;;;;;;;;;;;5077451;28;19924;-79
2020/12/01 01:08:32;;;;;;;;;;;;;;;;;;5077267;28;19924;-79
2020/12/01 01:10:58;;;;;;;;;;;;;;;;;;5095030;28;20394;-79
2020/12/01 01:13:25;;;;;;;;;;;;;;;;;;5077160;28;20010;-79
2020/12/01 01:15:51;;;;;;;;;;;;;;;;;;5095441;28;20384;-79
2020/12/01 01:18:18;;;;;;;;;;;;;;;;;;5095122;28;19924;-79
2020/12/01 01:20:45;;;;;;;;;;;;;;;;;;5077077;28;19931;-79
2020/12/01 01:23:12;;;;;;;;;;;;;;;;;;5076710;28;20403;-79
2020/12/01 01:25:39;;;;;;;;;;;;;;;;;;5077444;28;20006;-79
2020/12/01 01:28:05;;;;;;;;;;;;;;;;;;5095461;28;19931;-79
2020/12/01 01:30:32;;;;;;;;;;;;;;;;;;5077448;28;19924;-79
2020/12/01 01:32:59;;;;;;;;;;;;;;;;;;5076858;28;20422;-79
2020/12/01 01:35:25;;;;;;;;;;;;;;;;;;5077426;28;19932;-80
2020/12/01 01:37:52;;;;;;;;;;;;;;;;;;5094839;28;20024;-81
2020/12/01 01:40:18;;;;;;;;;;;;;;;;;;5095092;28;19982;-80
2020/12/01 01:42:45;;;;;;;;;;;;;;;;;;5077139;28;19974;-81
2020/12/01 01:45:11;;;;;;;;;;;;;;;;;;5077881;28;19924;-80
2020/12/01 01:47:38;;;;;;;;;;;;;;;;;;5095018;28;19963;-80
2020/12/01 01:50:05;;;;;;;;;;;;;;;;;;5095413;28;19924;-80
2020/12/01 01:52:31;;;;;;;;;;;;;;;;;;5076557;28;20106;-81
2020/12/01 01:54:58;;;;;;;;;;;;;;;;;;5077086;28;19974;-81
2020/12/01 01:57:25;;;;;;;;;;;;;;;;;;5076513;28;19985;-80
2020/12/01 01:59:51;;;;;;;;;;;;;;;;;;5076509;28;20039;-80
2020/12/01 02:02:18;;;;;;;;;;;;;;;;;;5091742;28;19924;-80
2020/12/01 02:04:45;;;;;;;;;;;;;;;;;;5072901;28;20341;-80
2020/12/01 02:07:32;;;;;;;;;;;;;;;;;;5092573;28;20023;-81
2020/12/01 02:09:58;;;;;;;;;;;;;;;;;;5076736;28;19978;-81
2020/12/01 02:12:25;;;;;;;;;;;;;;;;;;5075875;28;19924;-81
2020/12/01 02:14:52;;;;;;;;;;;;;;;;;;5094247;28;20480;-80
2020/12/01 02:17:18;;;;;;;;;;;;;;;;;;5094530;28;19952;-82
2020/12/01 02:19:45;;;;;;;;;;;;;;;;;;5076029;28;19977;-81
2020/12/01 02:22:11;;;;;;;;;;;;;;;;;;5076000;28;19969;-80
2020/12/01 02:24:38;;;;;;;;;;;;;;;;;;5094417;28;19971;-80
2020/12/01 02:27:05;;;;;;;;;;;;;;;;;;5075964;28;19928;-82
2020/12/01 02:29:31;;;;;;;;;;;;;;;;;;5076394;28;19962;-81
2020/12/01 02:31:58;;;;;;;;;;;;;;;;;;5076169;28;19924;-82
2020/12/01 02:34:25;;;;;;;;;;;;;;;;;;5077102;28;19924;-81
2020/12/01 02:36:51;;;;;;;;;;;;;;;;;;5076343;28;20019;-81
2020/12/01 02:39:18;;;;;;;;;;;;;;;;;;5076102;28;20023;-81
2020/12/01 02:41:44;;;;;;;;;;;;;;;;;;5093819;28;19982;-82
2020/12/01 02:44:12;;;;;;;;;;;;;;;;;;5076161;28;20018;-82
2020/12/01 02:46:39;;;;;;;;;;;;;;;;;;5076167;28;20031;-82
2020/12/01 02:49:05;;;;;;;;;;;;;;;;;;5076209;28;19931;-82
2020/12/01 02:51:32;;;;;;;;;;;;;;;;;;5076089;28;19999;-82
2020/12/01 02:53:58;;;;;;;;;;;;;;;;;;5075754;28;19924;-82
2020/12/01 02:56:25;;;;;;;;;;;;;;;;;;5093354;28;20019;-82
2020/12/01 02:58:51;;;;;;;;;;;;;;;;;;5093816;28;20000;-82
2020/12/01 03:01:18;;;;;;;;;;;;;;;;;;5092986;28;20007;-82
2020/12/01 03:03:44;;;;;;;;;;;;;;;;;;5075499;28;19989;-83
2020/12/01 03:06:11;;;;;;;;;;;;;;;;;;5075591;28;19967;-82
2020/12/01 03:08:38;;;;;;;;;;;;;;;;;;5075476;28;19975;-82
2020/12/01 03:11:04;;;;;;;;;;;;;;;;;;5075746;28;19925;-82
2020/12/01 03:13:31;;;;;;;;;;;;;;;;;;5075656;28;19974;-82
2020/12/01 03:16:02;;;;;;;;;;;;;;;;;;5093155;28;20031;-82
2020/12/01 03:18:29;;;;;;;;;;;;;;;;;;5093389;28;20415;-81
2020/12/01 03:20:56;;;;;;;;;;;;;;;;;;5075214;28;20019;-81
2020/12/01 03:23:22;;;;;;;;;;;;;;;;;;5092627;28;20340;-82
2020/12/01 03:25:49;;;;;;;;;;;;;;;;;;5074601;28;20269;-82
2020/12/01 03:28:16;;;;;;;;;;;;;;;;;;5074795;28;20011;-82
2020/12/01 03:30:42;;;;;;;;;;;;;;;;;;5075362;28;19971;-82
2020/12/01 03:33:09;;;;;;;;;;;;;;;;;;5075369;28;19924;-82
2020/12/01 03:35:35;;;;;;;;;;;;;;;;;;5075145;28;20396;-82
2020/12/01 03:38:02;;;;;;;;;;;;;;;;;;5074984;28;19974;-82
2020/12/01 03:40:28;;;;;;;;;;;;;;;;;;5075289;28;20019;-81
2020/12/01 03:42:55;;;;;;;;;;;;;;;;;;5092882;28;20407;-82
2020/12/01 03:45:21;;;;;;;;;;;;;;;;;;5074621;28;20007;-82
2020/12/01 03:47:48;;;;;;;;;;;;;;;;;;5093157;28;19968;-82
2020/12/01 03:50:14;;;;;;;;;;;;;;;;;;5074868;28;19930;-82
2020/12/01 03:52:41;;;;;;;;;;;;;;;;;;5093542;28;20015;-82
2020/12/01 03:55:08;;;;;;;;;;;;;;;;;;5075647;28;20304;-82
2020/12/01 03:57:40;;;;;;;;;;;;;;;;;;5074813;28;19979;-83
2020/12/01 04:00:07;;;;;;;;;;;;;;;;;;5075320;28;19924;-82
2020/12/01 04:02:33;;;;;;;;;;;;;;;;;;5074243;28;20015;-83
2020/12/01 04:05:00;;;;;;;;;;;;;;;;;;5092457;28;20015;-82
2020/12/01 04:07:26;;;;;;;;;;;;;;;;;;5074615;28;20033;-82
2020/12/01 04:09:53;;;;;;;;;;;;;;;;;;5074124;28;20018;-82
2020/12/01 04:12:20;;;;;;;;;;;;;;;;;;5090189;28;20010;-83
2020/12/01 04:14:50;;;;;;;;;;;;;;;;;;5092330;28;19971;-82
2020/12/01 04:17:18;;;;;;;;;;;;;;;;;;5074531;28;19967;-82
2020/12/01 04:19:44;;;;;;;;;;;;;;;;;;5091064;28;19967;-82
2020/12/01 04:22:12;;;;;;;;;;;;;;;;;;5090512;28;20042;-82
2020/12/01 04:24:41;;;;;;;;;;;;;;;;;;5072294;28;19935;-82
2020/12/01 04:27:08;;;;;;;;;;;;;;;;;;5070210;28;19924;-82
2020/12/01 04:29:38;;;;;;;;;;;;;;;;;;5073523;28;20023;-83
2020/12/01 04:32:05;;;;;;;;;;;;;;;;;;5092211;28;19970;-82
2020/12/01 04:34:32;;;;;;;;;;;;;;;;;;5074387;28;20015;-81
2020/12/01 04:36:58;;;;;;;;;;;;;;;;;;5077296;28;20031;-82
2020/12/01 04:39:25;;;;;;;;;;;;;;;;;;5078399;28;20380;-82
2020/12/01 04:41:52;;;;;;;;;;;;;;;;;;5095546;28;20330;-82
2020/12/01 04:44:18;;;;;;;;;;;;;;;;;;5096386;28;20000;-82
2020/12/01 04:46:45;;;;;;;;;;;;;;;;;;5078458;28;19967;-82
2020/12/01 04:49:14;;;;;;;;;;;;;;;;;;5078568;28;19971;-82
2020/12/01 04:51:41;;;;;;;;;;;;;;;;;;5077518;28;20002;-82
2020/12/01 04:54:08;;;;;;;;;;;;;;;;;;5077759;28;19924;-82
2020/12/01 04:56:34;;;;;;;;;;;;;;;;;;5077907;28;20019;-82
2020/12/01 04:59:01;;;;;;;;;;;;;;;;;;5095766;28;20023;-81
2020/12/01 05:01:27;;;;;;;;;;;;;;;;;;5094980;28;20345;-82
2020/12/01 05:03:54;;;;;;;;;;;;;;;;;;5077878;28;20019;-82
2020/12/01 05:09:13;;;;;;;;;;;;;;;;;;5065218;28;20376;-82
2020/12/01 05:11:40;;;;;;;;;;;;;;;;;;5077842;28;19924;-82
2020/12/01 05:14:07;;;;;;;;;;;;;;;;;;5078346;28;19969;-82
2020/12/01 05:16:34;;;;;;;;;;;;;;;;;;5078205;28;19924;-81
2020/12/01 05:19:00;;;;;;;;;;;;;;;;;;5096119;28;19999;-81
2020/12/01 05:21:27;;;;;;;;;;;;;;;;;;5077412;28;20528;-81
2020/12/01 05:23:54;;;;;;;;;;;;;;;;;;5095636;28;19975;-81
2020/12/01 05:28:50;;;;;;;;;;;;;;;;;;5095796;28;20384;-81
2020/12/01 05:31:17;;;;;;;;;;;;;;;;;;5077083;28;20015;-81
2020/12/01 05:33:44;;;;;;;;;;;;;;;;;;5077532;28;19955;-81
2020/12/01 05:36:10;;;;;;;;;;;;;;;;;;5077662;28;20011;-81
2020/12/01 05:38:37;;;;;;;;;;;;;;;;;;5077152;28;19928;-81
2020/12/01 05:41:04;;;;;;;;;;;;;;;;;;5076761;28;20296;-81
2020/12/01 05:43:30;;;;;;;;;;;;;;;;;;5076776;28;20415;-81
2020/12/01 05:45:57;;;;;;;;;;;;;;;;;;5077346;28;20384;-82
2020/12/01 05:48:24;;;;;;;;;;;;;;;;;;5076189;28;19924;-81
2020/12/01 05:50:51;;;;;;;;;;;;;;;;;;5076953;28;20575;-81
2020/12/01 05:53:19;;;;;;;;;;;;;;;;;;5094718;28;19972;-82
2020/12/01 05:55:52;;;;;;;;;;;;;;;;;;5076640;28;19931;-81
2020/12/01 05:58:18;;;;;;;;;;;;;;;;;;5076994;28;20031;-81
2020/12/01 06:00:45;;;;;;;;;;;;;;;;;;5077198;28;19967;-82
2020/12/01 06:03:12;;;;;;;;;;;;;;;;;;5076610;28;19964;-81
2020/12/01 06:05:38;;;;;;;;;;;;;;;;;;5076583;28;20546;-81
2020/12/01 06:08:05;;;;;;;;;;;;;;;;;;5094661;28;19970;-82
2020/12/01 06:10:31;;;;;;;;;;;;;;;;;;5075898;28;19928;-81
2020/12/01 06:12:58;;;;;;;;;;;;;;;;;;5094520;28;20410;-81
2020/12/01 06:15:27;;;;;;;;;;;;;;;;;;5076911;28;19924;-83
2020/12/01 06:17:53;;;;;;;;;;;;;;;;;;5076148;28;19924;-82
2020/12/01 06:20:20;;;;;;;;;;;;;;;;;;5073901;28;19971;-82
2020/12/01 06:22:46;;;;;;;;;;;;;;;;;;5076226;28;19975;-83
2020/12/01 06:25:14;;;;;;;;;;;;;;;;;;5076364;28;20006;-83
2020/12/01 06:27:41;;;;;;;;;;;;;;;;;;5094406;28;19981;-87
2020/12/01 06:30:07;;;;;;;;;;;;;;;;;;5076056;28;20333;-84
2020/12/01 06:32:34;;;;;;;;;;;;;;;;;;5075992;28;19971;-85
2020/12/01 06:35:01;;;;;;;;;;;;;;;;;;5078562;28;19963;-84
2020/12/01 06:37:32;;;;;;;;;;;;;;;;;;5096398;28;19955;-84
2020/12/01 06:39:59;;;;;;;;;;;;;;;;;;5086285;28;19970;-82
2020/12/01 06:42:25;;;;;;;;;;;;;;;;;;5092377;28;20015;-86
2020/12/01 06:44:53;;;;;;;;;;;;;;;;;;5093953;28;19963;-86
2020/12/01 06:47:19;;;;;;;;;;;;;;;;;;5075960;28;19975;-86
2020/12/01 06:49:46;;;;;;;;;;;;;;;;;;5086452;28;19956;-79
2020/12/01 06:52:12;;;;;;;;;;;;;;;;;;5112279;28;20406;-79
2020/12/01 06:54:39;;;;;;;;;;;;;;;;;;5113424;28;19967;-79
2020/12/01 06:57:06;;;;;;;;;;;;;;;;;;5095457;28;20327;-77
2020/12/01 06:59:32;;;;;;;;;;;;;;;;;;5089264;28;20253;-79
2020/12/01 07:01:59;;;;;;;;;;;;;;;;;;5093919;28;19924;-79
2020/12/01 07:04:25;;;;;;;;;;;;;;;;;;5093729;28;20427;-79
2020/12/01 07:06:52;;;;;;;;;;;;;;;;;;5093864;28;20019;-79
2020/12/01 07:09:19;;;;;;;;;;;;;;;;;;5089205;28;20026;-78
2020/12/01 07:11:48;;;;;;;;;;;;;;;;;;5085697;28;19960;-78
2020/12/01 07:14:15;;;;;;;;;;;;;;;;;;5112687;28;20015;-78
2020/12/01 07:16:42;;;;;;;;;;;;;;;;;;5112912;28;19934;-79
2020/12/01 07:19:08;;;;;;;;;;;;;;;;;;5082976;28;19924;-79
2020/12/01 07:21:35;;;;;;;;;;;;;;;;;;5091466;28;20019;-78
2020/12/01 07:24:01;;;;;;;;;;;;;;;;;;5083393;28;19928;-78
2020/12/01 07:26:28;;;;;;;;;;;;;;;;;;5074946;28;19934;-79
2020/12/01 07:28:54;;;;;;;;;;;;;;;;;;5092356;28;19993;-78
2020/12/01 07:31:21;;;;;;;;;;;;;;;;;;5069916;28;20419;-79
2020/12/01 07:33:47;;;;;;;;;;;;;;;;;;5070631;28;20015;-79
2020/12/01 07:36:14;;;;;;;;;;;;;;;;;;5073085;28;20016;-79
2020/12/01 07:38:56;;;;;;;;;;;;;;;;;;5079911;28;20400;-79
2020/12/01 07:41:23;;;;;;;;;;;;;;;;;;5085534;28;20007;-78
2020/12/01 07:43:50;;;;;;;;;;;;;;;;;;5094217;28;20391;-86
2020/12/01 07:46:17;;;;;;;;;;;;;;;;;;5095333;28;20280;-86
2020/12/01 07:48:43;;;;;;;;;;;;;;;;;;5088656;28;19924;-85
2020/12/01 07:51:10;;;;;;;;;;;;;;;;;;5080181;28;20420;-85
2020/12/01 07:53:37;;;;;;;;;;;;;;;;;;5092446;28;20437;-84
2020/12/01 07:56:03;;;;;;;;;;;;;;;;;;5092647;28;20007;-84
2020/12/01 07:58:32;;;;;;;;;;;;;;;;;;5074847;28;19975;-85
2020/12/01 08:00:58;;;;;;;;;;;;;;;;;;5074466;28;20552;-87
2020/12/01 08:03:25;;;;;;;;;;;;;;;;;;5053750;28;20399;-84
2020/12/01 08:05:52;;;;;;;;;;;;;;;;;;5073393;28;19928;-82
2020/12/01 08:08:18;;;;;;;;;;;;;;;;;;5074270;28;19963;-83
2020/12/01 08:10:45;;;;;;;;;;;;;;;;;;5101354;28;19924;-83
2020/12/01 08:13:11;;;;;;;;;;;;;;;;;;5092644;28;19989;-81
2020/12/01 08:15:40;;;;;;;;;;;;;;;;;;5075217;28;20414;-80
2020/12/01 08:18:07;;;;;;;;;;;;;;;;;;5073470;28;20433;-81
2020/12/01 08:20:34;;;;;;;;;;;;;;;;;;5099470;28;19979;-82
2020/12/01 08:23:04;;;;;;;;;;;;;;;;;;5072471;28;20851;-82
2020/12/01 08:25:42;;;;;;;;;;;;;;;;;;5075357;28;20022;-86
2020/12/01 08:28:08;;;;;;;;;;;;;;;;;;5067751;28;19932;-81
2020/12/01 08:30:35;;;;;;;;;;;;;;;;;;5088706;28;19928;-79
2020/12/01 08:33:02;;;;;;;;;;;;;;;;;;5071550;28;20308;-79
2020/12/01 08:35:28;;;;;;;;;;;;;;;;;;5087302;28;19974;-80
2020/12/01 08:37:58;;;;;;;;;;;;;;;;;;5069937;28;20413;-81
2020/12/01 08:40:26;;;;;;;;;;;;;;;;;;5089013;28;20680;-82
2020/12/01 08:42:53;;;;;;;;;;;;;;;;;;5068821;28;19978;-80
2020/12/01 08:45:21;;;;;;;;;;;;;;;;;;5052653;28;19975;-80
2020/12/01 08:47:47;;;;;;;;;;;;;;;;;;5067127;28;19971;-80
2020/12/01 08:50:14;;;;;;;;;;;;;;;;;;5085203;28;20010;-79
2020/12/01 08:52:42;;;;;;;;;;;;;;;;;;5092977;28;20439;-80
2020/12/01 08:55:08;;;;;;;;;;;;;;;;;;5093954;28;20010;-85
2020/12/01 08:57:35;;;;;;;;;;;;;;;;;;5092664;28;20641;-78
2020/12/01 09:00:17;;;;;;;;;;;;;;;;;;5075335;28;20292;-78
2020/12/01 09:02:44;;;;;;;;;;;;;;;;;;5070976;28;19931;-78
2020/12/01 09:05:11;;;;;;;;;;;;;;;;;;5072610;28;19928;-78
2020/12/01 09:07:42;;;;;;;;;;;;;;;;;;5082923;28;20362;-78
2020/12/01 09:10:10;;;;;;;;;;;;;;;;;;5082737;28;19927;-78
2020/12/01 09:12:53;;;;;;;;;;;;;;;;;;5072471;28;19963;-78
2020/12/01 09:15:45;;;;;;;;;;;;;;;;;;5071514;28;20425;-78
2020/12/01 09:23:55;;;;;;;;;;;;;;;;;;5093282;28;20035;-79
2020/12/01 09:26:23;;;;;;;;;;;;;;;;;;5083071;28;19981;-79
2020/12/01 09:28:50;;;;;;;;;;;;;;;;;;5075842;28;20024;-79
2020/12/01 09:31:17;;;;;;;;;;;;;;;;;;5075414;28;19924;-79
2020/12/01 09:33:43;;;;;;;;;;;;;;;;;;5074851;28;20011;-79
2020/12/01 09:36:12;;;;;;;;;;;;;;;;;;5092714;28;19964;-79
2020/12/01 09:38:39;;;;;;;;;;;;;;;;;;5089889;28;20400;-79
2020/12/01 09:41:06;;;;;;;;;;;;;;;;;;5104935;28;19972;-80
2020/12/01 09:43:41;;;;;;;;;;;;;;;;;;5114200;28;19963;-79
2020/12/01 09:46:12;;;;;;;;;;;;;;;;;;5089484;28;19955;-80
2020/12/01 09:48:43;;;;;;;;;;;;;;;;;;5081102;28;20046;-79
2020/12/01 09:51:10;;;;;;;;;;;;;;;;;;5089514;28;20017;-78
2020/12/01 10:09:03;;;;;;;;;;;;;;;;;;5090772;28;19986;-75
2020/12/01 10:35:47;;;;;;;;;;;;;;;;;;5087950;28;20412;-79
2020/12/01 10:38:13;;;;;;;;;;;;;;;;;;5072835;28;20766;-79
2020/12/01 10:40:40;;;;;;;;;;;;;;;;;;5106815;28;20014;-79
2020/12/01 10:43:06;;;;;;;;;;;;;;;;;;5078681;28;19971;-79
2020/12/01 10:45:33;;;;;;;;;;;;;;;;;;5110826;27;20023;-78
2020/12/01 10:48:17;;;;;;;;;;;;;;;;;;5088977;28;19928;-79
2020/12/01 10:50:46;;;;;;;;;;;;;;;;;;5071150;28;20011;-79
2020/12/01 10:53:12;;;;;;;;;;;;;;;;;;5089614;28;20445;-79
2020/12/01 10:55:39;;;;;;;;;;;;;;;;;;5090393;28;19951;-79
2020/12/01 10:58:05;;;;;;;;;;;;;;;;;;5072127;28;19974;-79
2020/12/01 11:00:32;;;;;;;;;;;;;;;;;;5084076;28;19928;-79
2020/12/01 11:03:00;;;;;;;;;;;;;;;;;;5073163;28;19930;-79
2020/12/01 11:05:27;;;;;;;;;;;;;;;;;;5073101;28;19973;-79
2020/12/01 11:07:53;;;;;;;;;;;;;;;;;;5090561;28;19972;-79
2020/12/01 11:10:20;;;;;;;;;;;;;;;;;;5095657;28;19978;-79
2020/12/01 11:12:46;;;;;;;;;;;;;;;;;;5092151;28;19962;-79
2020/12/01 11:15:13;;;;;;;;;;;;;;;;;;5093058;28;20032;-79
2020/12/01 11:17:40;;;;;;;;;;;;;;;;;;5095209;28;20455;-79
2020/12/01 11:20:06;;;;;;;;;;;;;;;;;;5082860;28;20456;-79
2020/12/01 11:22:33;;;;;;;;;;;;;;;;;;5105584;28;19932;-78
2020/12/01 11:25:00;;;;;;;;;;;;;;;;;;5098753;28;19923;-79
2020/12/01 11:27:27;;;;;;;;;;;;;;;;;;5102447;28;20010;-79
2020/12/01 11:29:55;;;;;;;;;;;;;;;;;;5072339;28;20373;-79
2020/12/01 11:32:22;;;;;;;;;;;;;;;;;;5071611;28;20015;-79
2020/12/01 11:34:48;;;;;;;;;;;;;;;;;;5090363;28;20023;-80
2020/12/01 11:37:15;;;;;;;;;;;;;;;;;;5072914;28;20391;-79
2020/12/01 11:39:41;;;;;;;;;;;;;;;;;;5081064;28;19927;-80
2020/12/01 11:42:08;;;;;;;;;;;;;;;;;;5081319;28;20011;-80
2020/12/01 11:44:35;;;;;;;;;;;;;;;;;;5070644;28;19954;-80
2020/12/01 11:47:01;;;;;;;;;;;;;;;;;;5085329;28;19982;-81
2020/12/01 11:49:28;;;;;;;;;;;;;;;;;;5098182;28;19971;-82
2020/12/01 11:51:55;;;;;;;;;;;;;;;;;;5093237;28;20007;-82
2020/12/01 11:54:21;;;;;;;;;;;;;;;;;;5054331;28;20032;-82
2020/12/01 11:56:56;;;;;;;;;;;;;;;;;;5085457;28;20022;-82
2020/12/01 11:59:22;;;;;;;;;;;;;;;;;;5074129;28;19950;-82
2020/12/01 12:01:50;;;;;;;;;;;;;;;;;;5091737;28;19982;-82
2020/12/01 12:04:23;;;;;;;;;;;;;;;;;;5091660;28;19966;-83
2020/12/01 12:06:49;;;;;;;;;;;;;;;;;;5091106;28;20380;-79
2020/12/01 12:09:18;;;;;;;;;;;;;;;;;;5089106;28;19924;-78
2020/12/01 12:11:44;;;;;;;;;;;;;;;;;;5094816;28;20500;-79
2020/12/01 12:14:11;;;;;;;;;;;;;;;;;;5071412;28;19981;-80
2020/12/01 12:16:38;;;;;;;;;;;;;;;;;;5090543;28;19924;-80
2020/12/01 12:19:04;;;;;;;;;;;;;;;;;;5093183;28;20402;-81
2020/12/01 12:21:31;;;;;;;;;;;;;;;;;;5105867;28;20776;-80
2020/12/01 12:24:03;;;;;;;;;;;;;;;;;;5091265;28;19935;-81
2020/12/01 12:26:29;;;;;;;;;;;;;;;;;;5073301;28;19977;-81
2020/12/01 12:28:58;;;;;;;;;;;;;;;;;;5072207;28;19973;-78
2020/12/01 12:31:25;;;;;;;;;;;;;;;;;;5072420;28;19928;-81
2020/12/01 12:33:52;;;;;;;;;;;;;;;;;;5072570;28;20508;-81
2020/12/01 12:36:21;;;;;;;;;;;;;;;;;;5090530;28;20034;-84
2020/12/01 12:38:49;;;;;;;;;;;;;;;;;;5075806;28;19978;-82
2020/12/01 12:41:19;;;;;;;;;;;;;;;;;;5084027;28;19959;-80
2020/12/01 12:43:48;;;;;;;;;;;;;;;;;;5093437;28;20004;-80
2020/12/01 12:46:15;;;;;;;;;;;;;;;;;;5091167;28;19977;-83
2020/12/01 12:48:41;;;;;;;;;;;;;;;;;;5081073;28;20019;-81
2020/12/01 12:51:13;;;;;;;;;;;;;;;;;;5088162;28;19928;-83
2020/12/01 12:53:41;;;;;;;;;;;;;;;;;;5092677;28;20008;-81
2020/12/01 12:56:08;;;;;;;;;;;;;;;;;;5096177;28;20694;-81
2020/12/01 12:58:35;;;;;;;;;;;;;;;;;;5094457;28;20571;-79
2020/12/01 13:01:02;;;;;;;;;;;;;;;;;;5076530;28;19932;-81
2020/12/01 13:03:30;;;;;;;;;;;;;;;;;;5089590;28;20347;-79
2020/12/01 13:09:07;;;;;;;;;;;;;;;;;;5061509;23;19991;-78
2020/12/01 13:11:33;;;;;;;;;;;;;;;;;;5049539;28;19960;-77
2020/12/01 13:14:00;;;;;;;;;;;;;;;;;;5067249;28;20052;-77
2020/12/01 13:16:27;;;;;;;;;;;;;;;;;;5052122;28;19959;-78
2020/12/01 13:18:54;;;;;;;;;;;;;;;;;;5063650;28;20015;-78
2020/12/01 13:21:21;;;;;;;;;;;;;;;;;;5063528;28;19929;-77
2020/12/01 13:23:49;;;;;;;;;;;;;;;;;;5049628;28;19931;-77
2020/12/01 13:26:15;;;;;;;;;;;;;;;;;;5051516;28;19936;-76
2020/12/01 13:28:42;;;;;;;;;;;;;;;;;;5051925;28;19934;-78
2020/12/01 13:31:08;;;;;;;;;;;;;;;;;;5051623;28;19960;-79
2020/12/01 13:33:35;;;;;;;;;;;;;;;;;;5051675;28;19971;-81
2020/12/01 13:36:06;;;;;;;;;;;;;;;;;;5053524;28;20023;-82
2020/12/01 13:38:33;;;;;;;;;;;;;;;;;;5055303;28;20035;-82
2020/12/01 13:41:00;;;;;;;;;;;;;;;;;;5080474;28;19978;-82
2020/12/01 13:43:27;;;;;;;;;;;;;;;;;;5072285;28;20479;-82
2020/12/01 13:45:53;;;;;;;;;;;;;;;;;;5079312;28;20015;-82
2020/12/01 13:48:20;;;;;;;;;;;;;;;;;;5058478;28;19924;-84
2020/12/01 13:50:47;;;;;;;;;;;;;;;;;;5080220;28;19956;-83
2020/12/01 13:53:14;;;;;;;;;;;;;;;;;;5088408;28;20065;-82
2020/12/01 13:55:41;;;;;;;;;;;;;;;;;;5088088;28;20523;-83
2020/12/01 13:58:07;;;;;;;;;;;;;;;;;;5086541;28;19968;-84
2020/12/01 14:00:35;;;;;;;;;;;;;;;;;;5064906;28;19925;-83
2020/12/01 14:03:05;;;;;;;;;;;;;;;;;;5049618;28;19932;-83
2020/12/01 14:05:40;;;;;;;;;;;;;;;;;;5051591;28;20008;-82
2020/12/01 14:08:07;;;;;;;;;;;;;;;;;;5051406;28;19925;-81
2020/12/01 14:10:36;;;;;;;;;;;;;;;;;;5059939;28;20015;-81
2020/12/01 14:13:03;;;;;;;;;;;;;;;;;;5032284;28;20006;-81
2020/12/01 14:15:30;;;;;;;;;;;;;;;;;;5066064;28;19967;-81
2020/12/01 14:17:57;;;;;;;;;;;;;;;;;;5055906;28;19928;-81
2020/12/01 14:20:24;;;;;;;;;;;;;;;;;;5056510;28;19968;-81
2020/12/01 14:22:50;;;;;;;;;;;;;;;;;;5052179;28;19978;-81
2020/12/01 14:25:18;;;;;;;;;;;;;;;;;;5052832;28;20533;-81
2020/12/01 14:27:44;;;;;;;;;;;;;;;;;;5051908;28;19925;-80
2020/12/01 14:30:11;;;;;;;;;;;;;;;;;;5053603;28;19967;-83
2020/12/01 14:32:37;;;;;;;;;;;;;;;;;;5051394;28;20423;-82
2020/12/01 14:35:04;;;;;;;;;;;;;;;;;;5052418;28;20029;-81
2020/12/01 14:37:31;;;;;;;;;;;;;;;;;;5051306;28;20036;-81
2020/12/01 14:39:58;;;;;;;;;;;;;;;;;;5058443;28;19929;-80
2020/12/01 14:42:24;;;;;;;;;;;;;;;;;;5082466;28;19947;-79
2020/12/01 14:44:51;;;;;;;;;;;;;;;;;;5055019;28;19924;-79
2020/12/01 14:47:17;;;;;;;;;;;;;;;;;;5049008;28;20668;-81
2020/12/01 14:49:47;;;;;;;;;;;;;;;;;;5061440;28;20013;-78
2020/12/01 14:52:14;;;;;;;;;;;;;;;;;;5042471;28;20000;-79
2020/12/01 14:54:42;;;;;;;;;;;;;;;;;;5046474;28;19925;-81
2020/12/01 14:57:09;;;;;;;;;;;;;;;;;;5065668;28;20032;-81
2020/12/01 14:59:35;;;;;;;;;;;;;;;;;;5063931;28;20032;-81
2020/12/01 15:02:05;;;;;;;;;;;;;;;;;;5048560;28;19956;-81
2020/12/01 15:04:32;;;;;;;;;;;;;;;;;;5049896;28;19929;-81
2020/12/01 15:06:58;;;;;;;;;;;;;;;;;;5051103;28;19929;-81
2020/12/01 15:09:25;;;;;;;;;;;;;;;;;;5055239;28;20391;-79
2020/12/01 15:11:51;;;;;;;;;;;;;;;;;;5064077;28;19960;-79
2020/12/01 15:14:19;;;;;;;;;;;;;;;;;;5065936;28;19974;-81
2020/12/01 15:16:47;;;;;;;;;;;;;;;;;;5063935;28;19974;-81
2020/12/01 15:19:14;;;;;;;;;;;;;;;;;;5063160;28;19933;-81
2020/12/01 15:21:46;;;;;;;;;;;;;;;;;;5065389;28;20023;-81
2020/12/01 15:24:13;;;;;;;;;;;;;;;;;;5050492;28;20347;-81
2020/12/01 15:26:40;;;;;;;;;;;;;;;;;;5048850;28;19964;-81
2020/12/01 15:29:06;;;;;;;;;;;;;;;;;;5046241;28;19928;-81
2020/12/01 15:31:35;;;;;;;;;;;;;;;;;;5046554;28;19932;-79
2020/12/01 15:34:02;;;;;;;;;;;;;;;;;;5047539;28;20017;-79
2020/12/01 15:36:29;;;;;;;;;;;;;;;;;;5065097;28;19988;-81
2020/12/01 15:38:56;;;;;;;;;;;;;;;;;;5055960;28;20635;-79
2020/12/01 15:41:25;;;;;;;;;;;;;;;;;;5077141;28;19974;-81
2020/12/01 15:43:53;;;;;;;;;;;;;;;;;;5078438;28;19964;-86
2020/12/01 15:46:21;;;;;;;;;;;;;;;;;;5048939;28;19978;-87
2020/12/01 15:48:50;;;;;;;;;;;;;;;;;;5059397;28;20015;-86
2020/12/01 15:51:18;;;;;;;;;;;;;;;;;;5056964;28;20421;-78
2020/12/01 15:53:49;;;;;;;;;;;;;;;;;;5049078;28;20382;-78
2020/12/01 15:56:15;;;;;;;;;;;;;;;;;;5050860;28;19925;-87
2020/12/01 15:58:44;;;;;;;;;;;;;;;;;;5050487;28;20019;-86
2020/12/01 16:01:14;;;;;;;;;;;;;;;;;;5050584;28;20019;-78
2020/12/01 16:03:42;;;;;;;;;;;;;;;;;;5050000;28;19979;-86
2020/12/01 16:06:12;;;;;;;;;;;;;;;;;;5050507;28;19924;-85
2020/12/01 16:08:38;;;;;;;;;;;;;;;;;;5050557;28;19928;-78
2020/12/01 16:11:05;;;;;;;;;;;;;;;;;;5078004;28;19975;-79
2020/12/01 16:13:31;;;;;;;;;;;;;;;;;;5049775;28;19971;-79
2020/12/01 16:15:58;;;;;;;;;;;;;;;;;;5050136;28;20020;-78
2020/12/01 16:18:25;;;;;;;;;;;;;;;;;;5057615;28;20428;-79
2020/12/01 16:20:51;;;;;;;;;;;;;;;;;;5076484;28;20350;-78
2020/12/01 16:23:19;;;;;;;;;;;;;;;;;;5085332;28;20398;-78
2020/12/01 16:25:46;;;;;;;;;;;;;;;;;;5085436;28;19924;-78
2020/12/01 16:28:12;;;;;;;;;;;;;;;;;;5085836;28;20042;-78
2020/12/01 16:30:39;;;;;;;;;;;;;;;;;;5073821;28;19991;-78
2020/12/01 16:33:11;;;;;;;;;;;;;;;;;;5047682;28;19933;-78
2020/12/01 16:35:49;;;;;;;;;;;;;;;;;;5028948;28;19964;-86
2020/12/01 16:38:16;;;;;;;;;;;;;;;;;;5034566;28;20013;-87
2020/12/01 16:40:49;;;;;;;;;;;;;;;;;;5066029;28;20039;-87
2020/12/01 16:43:15;;;;;;;;;;;;;;;;;;5065685;28;19957;-87
2020/12/01 16:45:42;;;;;;;;;;;;;;;;;;5066494;28;19925;-88
2020/12/01 16:48:08;;;;;;;;;;;;;;;;;;5056266;28;19983;-81
2020/12/01 16:50:35;;;;;;;;;;;;;;;;;;5065196;28;20017;-79
2020/12/01 16:53:03;;;;;;;;;;;;;;;;;;5040578;28;20008;-79
2020/12/01 16:55:30;;;;;;;;;;;;;;;;;;5037722;28;20479;-79
2020/12/01 16:57:57;;;;;;;;;;;;;;;;;;5040675;28;19963;-78
2020/12/01 17:00:32;;;;;;;;;;;;;;;;;;5053913;28;19964;-78
2020/12/01 17:03:03;;;;;;;;;;;;;;;;;;5039409;28;20011;-80
2020/12/01 17:05:31;;;;;;;;;;;;;;;;;;5038811;28;19928;-82
2020/12/01 17:07:58;;;;;;;;;;;;;;;;;;5041190;28;20102;-80
2020/12/01 17:10:25;;;;;;;;;;;;;;;;;;5037983;28;19976;-80
2020/12/01 17:12:52;;;;;;;;;;;;;;;;;;5038501;28;20031;-80
2020/12/01 17:15:18;;;;;;;;;;;;;;;;;;5035727;28;20007;-79
2020/12/01 17:17:45;;;;;;;;;;;;;;;;;;5039651;28;20419;-80
2020/12/01 17:20:11;;;;;;;;;;;;;;;;;;5034530;28;19990;-80
2020/12/01 17:22:38;;;;;;;;;;;;;;;;;;5034532;28;19948;-79
2020/12/01 17:25:04;;;;;;;;;;;;;;;;;;5050915;28;19940;-80
2020/12/01 17:27:31;;;;;;;;;;;;;;;;;;5048789;28;19928;-80
2020/12/01 17:29:58;;;;;;;;;;;;;;;;;;5031115;28;19936;-78
2020/12/01 17:32:25;;;;;;;;;;;;;;;;;;5043005;28;19929;-78
2020/12/01 17:34:51;;;;;;;;;;;;;;;;;;5044947;28;20111;-80
2020/12/01 17:37:20;;;;;;;;;;;;;;;;;;5045275;28;20019;-82
2020/12/01 17:39:47;;;;;;;;;;;;;;;;;;5051793;28;20417;-87
2020/12/01 17:44:45;;;;;;;;;;;;;;;;;;5050383;28;20060;-81